Time;durP1;ratioP1;P1;durP2;ratioP2;P2;SDS_P1;SDS_P2;PMS_P1;PMS_P2;Temp;Humidity;BMP_temperature;BMP_pressure;BME280_temperature;BME280_humidity;BME280_pressure;Samples;Min_cycle;Max_cycle;Signal;HPM_P1;HPM_P2
2022/07/20 07:27:42;;;;;;;16.33;9.40;;;22.30;96.50;;;;;;5074281;27;20395;-49
2022/07/20 07:30:09;;;;;;;17.92;9.70;;;22.10;96.00;;;;;;5058453;28;20045;-47
2022/07/20 07:32:36;;;;;;;16.90;9.02;;;22.20;96.00;;;;;;5068713;28;20061;-45
2022/07/20 07:35:03;;;;;;;18.50;9.82;;;22.20;95.70;;;;;;5068138;28;20122;-50
2022/07/20 07:37:36;;;;;;;15.35;9.43;;;22.30;95.70;;;;;;5065231;28;20135;-48
2022/07/20 07:40:03;;;;;;;16.80;8.98;;;22.40;95.50;;;;;;5069573;28;20052;-47
2022/07/20 07:42:30;;;;;;;16.42;9.13;;;22.50;95.50;;;;;;5069341;28;20123;-50
2022/07/20 07:44:58;;;;;;;14.82;8.27;;;22.60;95.40;;;;;;5063129;28;20049;-49
2022/07/20 07:47:25;;;;;;;14.55;8.90;;;22.70;95.30;;;;;;5069678;28;20052;-47
2022/07/20 07:49:52;;;;;;;15.68;8.73;;;22.90;95.00;;;;;;5067503;28;20106;-48
2022/07/20 07:52:19;;;;;;;15.80;8.55;;;23.10;94.50;;;;;;5069430;28;20048;-48
2022/07/20 07:54:45;;;;;;;16.35;8.73;;;23.10;93.90;;;;;;5069636;28;20080;-52
2022/07/20 07:57:12;;;;;;;13.90;8.90;;;23.20;93.90;;;;;;5069293;28;20048;-48
2022/07/20 07:59:39;;;;;;;14.70;7.90;;;23.20;93.90;;;;;;5067173;28;20040;-50
2022/07/20 08:02:06;;;;;;;15.15;8.40;;;23.30;93.80;;;;;;5068229;28;20033;-49
2022/07/20 08:04:33;;;;;;;13.65;8.05;;;23.40;93.50;;;;;;5069099;28;20045;-45
2022/07/20 08:07:00;;;;;;;12.02;7.88;;;23.50;93.30;;;;;;5068994;28;20515;-45
2022/07/20 08:09:26;;;;;;;14.40;7.38;;;23.60;93.00;;;;;;5067574;28;20040;-52
2022/07/20 08:11:53;;;;;;;14.77;7.95;;;23.70;92.50;;;;;;5068148;28;20488;-50
2022/07/20 08:14:20;;;;;;;12.02;7.72;;;23.70;92.00;;;;;;5067244;28;20094;-46
2022/07/20 08:16:47;;;;;;;11.65;7.38;;;23.70;92.00;;;;;;5067751;28;20456;-47
2022/07/20 08:19:14;;;;;;;13.23;7.72;;;23.70;92.10;;;;;;5068097;28;20132;-46
2022/07/20 08:21:40;;;;;;;10.52;7.38;;;23.80;91.90;;;;;;5067807;28;20045;-49
2022/07/20 08:24:07;;;;;;;14.30;7.68;;;23.80;91.90;;;;;;5068206;28;20076;-44
2022/07/20 08:26:34;;;;;;;12.45;7.55;;;23.80;91.70;;;;;;5061229;28;20060;-45
2022/07/20 08:29:01;;;;;;;12.50;7.57;;;23.80;91.60;;;;;;5068577;28;20036;-53
2022/07/20 08:31:33;;;;;;;12.63;7.32;;;23.80;91.60;;;;;;5068588;28;20041;-51
2022/07/20 08:34:00;;;;;;;15.20;7.70;;;23.90;91.40;;;;;;5068500;28;20040;-51
2022/07/20 08:36:27;;;;;;;13.38;7.28;;;24.00;91.70;;;;;;5068566;28;20045;-49
2022/07/20 08:38:54;;;;;;;12.88;7.30;;;24.00;90.90;;;;;;5055829;28;20044;-56
2022/07/20 08:41:20;;;;;;;12.65;7.10;;;24.10;91.30;;;;;;5055120;28;20072;-51
2022/07/20 08:43:47;;;;;;;12.90;6.70;;;24.20;91.00;;;;;;5055182;28;20044;-50
2022/07/20 08:46:14;;;;;;;11.88;6.90;;;24.40;90.70;;;;;;5054965;28;20037;-50
2022/07/20 08:48:41;;;;;;;12.13;6.93;;;24.40;90.10;;;;;;5054998;28;20095;-51
2022/07/20 08:51:08;;;;;;;10.15;6.85;;;24.30;90.20;;;;;;5058215;28;20052;-55
2022/07/20 08:53:35;;;;;;;14.55;6.70;;;24.40;90.30;;;;;;5054040;28;20083;-54
2022/07/20 08:56:08;;;;;;;11.65;6.50;;;24.30;90.50;;;;;;5054890;28;20052;-54
2022/07/20 08:58:35;;;;;;;10.80;6.93;;;24.20;89.50;;;;;;5054775;28;20064;-50
2022/07/20 09:01:01;;;;;;;10.32;6.43;;;24.20;89.70;;;;;;5054669;28;20041;-49
2022/07/20 09:03:28;;;;;;;11.73;7.03;;;24.20;89.80;;;;;;5053274;28;20037;-52
2022/07/20 12:51:00;;;;;;;6.72;2.90;;;28.10;70.40;;;;;;5069838;28;20896;-50
2022/07/20 12:53:28;;;;;;;6.80;2.40;;;28.10;71.80;;;;;;5060667;28;20047;-53
2022/07/20 12:55:54;;;;;;;9.73;2.60;;;28.30;71.00;;;;;;5053953;28;20040;-53
2022/07/20 12:58:21;;;;;;;8.02;3.03;;;28.40;70.50;;;;;;5049362;28;20033;-56
2022/07/20 13:00:48;;;;;;;9.13;2.67;;;28.40;71.50;;;;;;5046215;28;20107;-58
2022/07/20 13:03:15;;;;;;;7.28;2.45;;;28.40;69.80;;;;;;5049354;28;20037;-54
2022/07/20 13:05:44;;;;;;;6.65;2.30;;;28.20;70.40;;;;;;5046470;28;20131;-53
2022/07/20 13:08:11;;;;;;;6.75;2.42;;;28.30;71.20;;;;;;5051329;28;20047;-52
2022/07/20 13:10:38;;;;;;;7.65;2.55;;;28.40;70.40;;;;;;5046438;28;20076;-52
2022/07/20 13:13:05;;;;;;;7.18;2.13;;;28.50;70.50;;;;;;5042611;28;20373;-51
2022/07/20 13:15:31;;;;;;;7.38;2.67;;;28.40;69.20;;;;;;5047956;28;20041;-51
2022/07/20 13:18:03;;;;;;;8.73;2.63;;;28.30;69.70;;;;;;5048221;28;20049;-56
2022/07/20 13:20:30;;;;;;;7.47;2.38;;;28.10;70.20;;;;;;5049347;28;20048;-50
2022/07/20 13:22:57;;;;;;;7.80;3.00;;;28.10;70.60;;;;;;5048319;28;20491;-53
2022/07/20 13:25:24;;;;;;;8.65;2.88;;;28.00;69.60;;;;;;5049253;28;20091;-52
2022/07/20 13:27:51;;;;;;;12.32;2.75;;;28.00;69.70;;;;;;5049208;28;20162;-52
2022/07/20 13:30:18;;;;;;;9.45;2.72;;;27.90;70.40;;;;;;5049141;28;20068;-53
2022/07/20 13:32:45;;;;;;;9.00;2.70;;;28.10;71.00;;;;;;5048532;28;20037;-52
2022/07/20 13:35:12;;;;;;;9.18;2.80;;;28.30;71.20;;;;;;5049110;28;20354;-48
2022/07/20 13:37:40;;;;;;;7.97;2.60;;;28.40;71.30;;;;;;5049108;28;20400;-54
2022/07/20 13:40:08;;;;;;;9.35;2.70;;;28.40;70.00;;;;;;5048556;28;20051;-54
2022/07/20 13:42:35;;;;;;;8.10;2.55;;;28.50;71.00;;;;;;5049276;28;20056;-52
2022/07/20 13:45:02;;;;;;;6.75;2.70;;;28.40;70.10;;;;;;5045477;28;20455;-52
2022/07/20 13:47:36;;;;;;;7.57;2.35;;;28.40;70.30;;;;;;5049080;28;20140;-54
2022/07/20 13:50:04;;;;;;;8.70;2.58;;;28.40;70.60;;;;;;5044396;28;20081;-53
2022/07/20 13:52:31;;;;;;;7.40;2.97;;;28.50;70.50;;;;;;5049596;28;20049;-51
2022/07/20 13:54:59;;;;;;;9.98;2.65;;;28.60;70.10;;;;;;5050947;28;20052;-52
2022/07/20 13:57:26;;;;;;;9.98;3.22;;;28.60;70.10;;;;;;5043930;28;20095;-50
2022/07/20 13:59:53;;;;;;;7.03;2.60;;;28.60;70.70;;;;;;5045118;28;20041;-56
2022/07/20 14:02:19;;;;;;;8.00;2.80;;;28.60;70.10;;;;;;5033233;28;20465;-53
2022/07/20 14:04:46;;;;;;;7.78;2.83;;;28.40;69.80;;;;;;5034610;28;20065;-53
2022/07/20 14:07:13;;;;;;;7.43;2.65;;;28.20;70.40;;;;;;5034521;28;20037;-50
2022/07/20 14:09:40;;;;;;;9.35;3.13;;;28.10;69.80;;;;;;5034076;28;20381;-51
2022/07/20 14:12:08;;;;;;;10.38;3.10;;;28.00;70.80;;;;;;5032336;28;20037;-53
2022/07/20 14:14:34;;;;;;;8.07;3.10;;;28.20;70.70;;;;;;5032781;28;20076;-53
2022/07/20 14:17:01;;;;;;;8.73;3.35;;;28.20;69.70;;;;;;5035271;28;20048;-53
2022/07/20 14:19:36;;;;;;;9.32;3.35;;;28.20;69.80;;;;;;5035297;28;20108;-54
2022/07/20 14:22:03;;;;;;;9.10;3.30;;;28.00;70.50;;;;;;5034875;28;20084;-51
2022/07/20 14:24:30;;;;;;;7.85;3.47;;;28.00;70.50;;;;;;5035066;28;20120;-50
2022/07/20 14:26:56;;;;;;;8.38;3.40;;;28.10;69.90;;;;;;5034852;28;20076;-55
2022/07/20 14:29:23;;;;;;;6.65;3.00;;;28.20;70.40;;;;;;5034734;28;20461;-50
2022/07/20 14:31:50;;;;;;;8.98;3.28;;;28.40;69.90;;;;;;5034556;28;20084;-52
2022/07/20 14:34:18;;;;;;;10.25;2.80;;;28.60;69.50;;;;;;5033633;28;20512;-52
2022/07/20 14:36:45;;;;;;;8.10;3.10;;;28.50;69.20;;;;;;5034674;28;20050;-51
2022/07/20 14:39:11;;;;;;;7.50;3.33;;;28.60;69.30;;;;;;5034540;28;20041;-53
2022/07/20 14:41:38;;;;;;;7.53;3.70;;;28.70;68.70;;;;;;5034590;28;20041;-50
2022/07/20 14:44:05;;;;;;;7.10;3.38;;;28.40;67.70;;;;;;5034641;28;20042;-49
2022/07/20 14:46:32;;;;;;;7.47;3.75;;;28.30;67.90;;;;;;5033369;28;20076;-53
2022/07/20 14:48:59;;;;;;;6.32;3.63;;;28.20;68.30;;;;;;5034147;28;20049;-54
2022/07/20 14:51:25;;;;;;;7.15;3.92;;;28.10;68.40;;;;;;5038055;28;20045;-52
2022/07/20 14:53:52;;;;;;;11.77;4.38;;;28.20;68.50;;;;;;5034415;28;20045;-50
2022/07/20 14:56:19;;;;;;;10.10;3.95;;;28.20;68.30;;;;;;5034515;28;20050;-49
2022/07/20 14:58:46;;;;;;;8.73;3.63;;;28.30;68.10;;;;;;5030806;28;20128;-54
2022/07/20 15:01:14;;;;;;;8.20;3.55;;;28.50;68.00;;;;;;5031771;28;20124;-53
2022/07/20 15:03:41;;;;;;;7.82;3.63;;;28.60;67.30;;;;;;5029686;28;20064;-54
2022/07/20 15:06:07;;;;;;;10.27;4.28;;;28.60;67.50;;;;;;5034297;28;20095;-52
2022/07/20 15:08:34;;;;;;;7.00;3.67;;;28.30;67.60;;;;;;5032101;28;20037;-56
2022/07/20 15:11:01;;;;;;;7.10;3.60;;;28.20;68.10;;;;;;5031596;28;20076;-55
2022/07/20 15:13:28;;;;;;;8.30;3.53;;;28.30;68.40;;;;;;5030903;28;20042;-53
2022/07/20 15:15:54;;;;;;;5.72;3.55;;;28.30;68.40;;;;;;5034089;28;20053;-53
2022/07/20 15:18:21;;;;;;;7.55;3.28;;;28.30;68.70;;;;;;5033916;28;20052;-53
2022/07/20 15:20:48;;;;;;;8.55;3.63;;;28.30;68.80;;;;;;5036889;28;20041;-54
2022/07/20 15:23:15;;;;;;;8.90;3.63;;;28.50;68.80;;;;;;5036630;28;20048;-54
2022/07/20 15:25:42;;;;;;;10.07;3.70;;;28.50;68.40;;;;;;5033525;28;20103;-51
2022/07/20 15:28:08;;;;;;;7.70;3.33;;;28.60;68.80;;;;;;5033854;28;20045;-55
2022/07/20 15:30:35;;;;;;;8.25;3.22;;;28.70;68.30;;;;;;5033810;28;20076;-51
2022/07/20 15:33:02;;;;;;;8.80;3.83;;;28.70;67.80;;;;;;5033799;28;20045;-52
2022/07/20 15:35:35;;;;;;;7.78;3.80;;;28.80;68.00;;;;;;5033513;28;20045;-54
2022/07/20 15:38:02;;;;;;;7.57;3.80;;;28.70;66.80;;;;;;5033483;28;20607;-52
2022/07/20 15:40:29;;;;;;;10.60;4.05;;;28.80;66.90;;;;;;5030507;28;20511;-53
2022/07/20 15:42:55;;;;;;;7.40;4.18;;;28.90;66.90;;;;;;5032364;28;20037;-53
2022/07/20 15:45:22;;;;;;;9.48;3.97;;;29.00;66.90;;;;;;5031344;28;20041;-51
2022/07/20 15:47:49;;;;;;;6.15;4.00;;;29.20;66.70;;;;;;5033484;28;20042;-50
2022/07/20 15:50:16;;;;;;;7.63;3.55;;;29.40;65.70;;;;;;5033065;28;20057;-49
2022/07/20 15:52:43;;;;;;;9.15;4.82;;;29.50;65.80;;;;;;5035631;28;20053;-48
2022/07/20 15:55:09;;;;;;;8.18;4.35;;;29.50;65.20;;;;;;5035497;28;20057;-51
2022/07/20 15:57:36;;;;;;;9.07;4.32;;;29.30;64.70;;;;;;5033184;28;20106;-54
2022/07/20 16:00:04;;;;;;;8.73;4.32;;;29.10;64.60;;;;;;5034109;28;20045;-53
2022/07/20 16:02:35;;;;;;;9.82;4.70;;;28.80;65.20;;;;;;5033163;28;20042;-52
2022/07/20 16:05:02;;;;;;;9.50;4.43;;;28.40;66.00;;;;;;5033318;28;20041;-52
2022/07/20 16:07:29;;;;;;;10.23;4.82;;;28.50;66.50;;;;;;5030102;28;20045;-50
2022/07/20 16:09:56;;;;;;;9.70;4.93;;;28.60;66.00;;;;;;5033875;28;20051;-54
2022/07/20 16:12:24;;;;;;;10.07;4.10;;;28.60;66.30;;;;;;5036060;28;20488;-54
2022/07/20 16:14:51;;;;;;;9.38;4.47;;;28.80;66.40;;;;;;5032816;28;20076;-52
2022/07/20 16:17:18;;;;;;;6.47;4.32;;;28.90;65.50;;;;;;5032251;28;20037;-50
2022/07/20 16:19:45;;;;;;;7.32;4.43;;;29.10;66.00;;;;;;5032603;28;20049;-55
2022/07/20 16:22:12;;;;;;;10.80;5.00;;;29.80;64.90;;;;;;5032821;28;20166;-55
2022/07/20 16:24:38;;;;;;;8.18;4.55;;;30.10;63.80;;;;;;5035682;28;20152;-52
2022/07/20 16:27:05;;;;;;;8.50;4.88;;;30.10;63.90;;;;;;5029908;28;20037;-53
2022/07/20 16:29:32;;;;;;;8.07;4.60;;;30.10;63.60;;;;;;5039212;28;20041;-51
2022/07/20 16:31:59;;;;;;;7.90;4.47;;;30.10;63.60;;;;;;5030318;28;20086;-49
2022/07/20 16:34:26;;;;;;;8.18;5.22;;;30.10;63.10;;;;;;5031799;28;20048;-51
2022/07/20 16:36:53;;;;;;;9.95;5.10;;;30.10;63.10;;;;;;5032687;28;20064;-52
2022/07/20 16:39:20;;;;;;;9.55;4.72;;;30.10;63.80;;;;;;5031928;28;20045;-51
2022/07/20 16:41:47;;;;;;;10.10;4.32;;;30.50;63.40;;;;;;5030809;28;20124;-52
2022/07/20 16:44:13;;;;;;;9.40;4.57;;;30.70;63.10;;;;;;5023351;28;20056;-53
2022/07/20 16:46:40;;;;;;;7.28;4.20;;;31.00;62.80;;;;;;5025587;28;20033;-56
2022/07/20 16:49:07;;;;;;;7.15;4.40;;;31.40;62.20;;;;;;5035560;28;20131;-53
2022/07/20 16:51:46;;;;;;;6.72;4.32;;;31.60;62.10;;;;;;5031034;28;20053;-55
2022/07/20 16:54:13;;;;;;;9.95;4.65;;;31.80;60.90;;;;;;5032569;28;20595;-55
2022/07/20 16:56:40;;;;;;;7.97;4.70;;;31.90;60.10;;;;;;5028398;28;20060;-50
2022/07/20 16:59:07;;;;;;;8.35;4.55;;;32.30;60.30;;;;;;5027620;28;20374;-52
2022/07/20 17:01:33;;;;;;;9.60;4.50;;;32.40;59.80;;;;;;5031637;28;20033;-54
2022/07/20 17:04:00;;;;;;;7.07;4.50;;;32.50;59.60;;;;;;5032644;28;20044;-55
2022/07/20 17:06:27;;;;;;;5.68;4.03;;;32.70;59.70;;;;;;5029423;28;20087;-50
2022/07/20 17:08:54;;;;;;;8.52;4.50;;;32.30;59.10;;;;;;5030821;28;20128;-52
2022/07/20 17:11:21;;;;;;;7.82;4.75;;;31.50;59.50;;;;;;5030730;28;20044;-51
2022/07/20 17:13:48;;;;;;;10.10;5.70;;;31.00;60.30;;;;;;5024887;28;20490;-53
2022/07/20 17:16:15;;;;;;;8.27;5.05;;;30.40;61.70;;;;;;5032310;28;20041;-51
2022/07/20 17:18:41;;;;;;;8.15;5.07;;;30.10;62.50;;;;;;5030639;28;20048;-52
2022/07/20 17:21:08;;;;;;;9.45;5.20;;;29.80;63.10;;;;;;5028983;28;20057;-55
2022/07/20 17:23:35;;;;;;;9.93;5.30;;;29.50;63.50;;;;;;5024677;28;20066;-51
2022/07/20 17:26:02;;;;;;;8.52;5.00;;;29.20;64.10;;;;;;5029152;28;20543;-50
2022/07/20 17:28:28;;;;;;;10.02;4.97;;;29.10;64.90;;;;;;5030569;28;20069;-51
2022/07/20 17:30:55;;;;;;;9.63;5.30;;;28.90;64.80;;;;;;5030238;28;20050;-54
2022/07/20 17:33:22;;;;;;;8.35;5.07;;;28.70;65.10;;;;;;5027695;28;20428;-54
2022/07/20 17:35:48;;;;;;;10.73;5.47;;;28.70;65.40;;;;;;5028138;28;20042;-52
2022/07/20 17:38:15;;;;;;;7.32;5.72;;;28.60;65.30;;;;;;5035380;28;20068;-46
2022/07/20 17:40:42;;;;;;;8.25;5.50;;;28.60;65.40;;;;;;5034374;28;20425;-51
2022/07/20 17:43:09;;;;;;;11.57;5.93;;;28.30;65.50;;;;;;5030751;28;20201;-51
2022/07/20 17:45:37;;;;;;;11.05;5.75;;;28.20;66.00;;;;;;5035859;28;20045;-54
2022/07/20 17:48:04;;;;;;;10.57;6.00;;;28.00;66.50;;;;;;5026302;28;20072;-51
2022/07/20 17:50:30;;;;;;;12.02;5.93;;;27.90;66.60;;;;;;5033426;28;20049;-54
2022/07/20 17:52:58;;;;;;;10.50;5.80;;;27.90;66.90;;;;;;5033047;28;20084;-52
2022/07/20 17:55:24;;;;;;;9.23;5.95;;;27.70;67.10;;;;;;5034046;28;20045;-49
2022/07/20 17:57:51;;;;;;;9.73;5.97;;;27.60;67.50;;;;;;5031491;28;20188;-50
2022/07/20 18:00:20;;;;;;;13.10;6.07;;;27.60;68.00;;;;;;5031972;28;20052;-50
2022/07/20 18:02:46;;;;;;;8.35;5.80;;;27.60;68.30;;;;;;5030131;28;20038;-52
2022/07/20 18:05:13;;;;;;;7.75;5.57;;;27.60;68.40;;;;;;5032348;28;20045;-51
2022/07/20 18:07:40;;;;;;;9.82;5.80;;;27.60;68.70;;;;;;5033375;28;20038;-53
2022/07/20 18:10:07;;;;;;;11.98;5.97;;;27.50;68.70;;;;;;5034903;28;20403;-50
2022/07/20 18:12:34;;;;;;;10.98;6.30;;;27.40;69.20;;;;;;5033360;28;20104;-53
2022/07/20 18:15:03;;;;;;;7.88;5.75;;;27.40;69.50;;;;;;5033506;28;20030;-51
2022/07/20 18:17:29;;;;;;;7.25;5.85;;;27.30;69.50;;;;;;5033385;28;20042;-51
2022/07/20 18:19:56;;;;;;;10.73;5.97;;;27.20;70.00;;;;;;5035145;28;20099;-54
2022/07/20 18:22:23;;;;;;;11.05;5.70;;;27.00;70.60;;;;;;5033415;28;20526;-54
2022/07/20 18:24:50;;;;;;;7.60;5.38;;;27.00;70.80;;;;;;5030828;28;20057;-50
2022/07/20 18:27:18;;;;;;;9.60;5.93;;;26.90;71.50;;;;;;5027443;28;20076;-52
2022/07/20 18:29:45;;;;;;;12.55;5.70;;;26.80;71.70;;;;;;5028381;28;20046;-50
2022/07/20 18:32:12;;;;;;;10.18;5.43;;;26.70;71.90;;;;;;5030661;28;20092;-54
2022/07/20 18:34:38;;;;;;;8.00;5.05;;;26.50;73.70;;;;;;5030462;28;20041;-53
2022/07/20 18:37:05;;;;;;;9.80;5.40;;;26.30;74.60;;;;;;5030182;28;20074;-52
2022/07/20 18:39:32;;;;;;;9.80;5.90;;;26.20;74.80;;;;;;5034535;28;20037;-54
2022/07/20 18:41:59;;;;;;;11.68;6.15;;;26.20;74.80;;;;;;5034242;28;20069;-51
2022/07/20 18:44:26;;;;;;;8.80;5.95;;;26.10;75.00;;;;;;5036502;28;20029;-54
2022/07/20 18:46:52;;;;;;;10.20;6.22;;;25.90;75.50;;;;;;5035497;28;20053;-55
2022/07/20 18:49:19;;;;;;;11.75;6.40;;;25.90;76.00;;;;;;5032739;28;20496;-54
2022/07/20 18:51:46;;;;;;;10.43;6.25;;;25.90;76.20;;;;;;5030337;28;20038;-52
2022/07/20 18:54:13;;;;;;;11.23;5.90;;;25.80;76.20;;;;;;5028588;28;20041;-54
2022/07/20 18:56:40;;;;;;;13.98;6.20;;;25.80;76.50;;;;;;5034100;28;20091;-52
2022/07/20 18:59:27;;;;;;;9.80;5.97;;;25.70;76.90;;;;;;5032085;28;20041;-51
2022/07/20 19:01:53;;;;;;;12.25;6.25;;;25.60;77.40;;;;;;5036263;28;20037;-55
2022/07/20 19:04:21;;;;;;;12.60;6.18;;;25.50;77.60;;;;;;5033249;28;20041;-49
2022/07/20 19:06:55;;;;;;;10.02;6.60;;;25.50;78.30;;;;;;5033696;28;20407;-55
2022/07/20 19:09:21;;;;;;;11.88;6.80;;;25.50;78.70;;;;;;5033696;28;20046;-53
2022/07/20 19:11:48;;;;;;;11.85;6.95;;;25.40;79.30;;;;;;5032144;28;20038;-51
2022/07/20 19:14:15;;;;;;;16.75;6.90;;;25.40;79.40;;;;;;5032324;28;20103;-51
2022/07/20 19:16:42;;;;;;;14.98;7.97;;;25.40;79.60;;;;;;5029486;28;20056;-50
2022/07/20 19:19:09;;;;;;;12.73;7.30;;;25.40;79.60;;;;;;5031072;28;20064;-53
2022/07/20 19:21:35;;;;;;;11.13;6.40;;;25.40;79.50;;;;;;5036872;28;20056;-48
2022/07/20 19:24:02;;;;;;;11.63;6.80;;;25.40;80.00;;;;;;5030513;28;20480;-54
2022/07/20 19:26:29;;;;;;;12.45;7.38;;;25.30;80.00;;;;;;5038210;28;20048;-51
2022/07/20 19:28:56;;;;;;;11.15;6.85;;;25.10;81.00;;;;;;5024454;28;20366;-53
2022/07/20 19:31:22;;;;;;;11.90;7.25;;;25.10;81.50;;;;;;5029794;28;20041;-51
2022/07/20 19:33:51;;;;;;;10.93;7.25;;;24.90;82.10;;;;;;5031679;28;20041;-55
2022/07/20 19:36:17;;;;;;;13.55;7.85;;;24.90;82.90;;;;;;5030840;28;20570;-55
2022/07/20 19:38:44;;;;;;;11.70;7.05;;;24.90;83.50;;;;;;5027805;28;20072;-48
2022/07/20 19:41:12;;;;;;;11.40;7.15;;;24.80;83.90;;;;;;5027083;28;20061;-53
2022/07/20 19:43:39;;;;;;;9.88;7.28;;;24.70;84.60;;;;;;5031919;28;20072;-54
2022/07/20 19:46:07;;;;;;;13.80;6.95;;;24.70;84.80;;;;;;5029244;28;20057;-53
2022/07/20 19:48:34;;;;;;;12.98;7.20;;;24.80;84.80;;;;;;5027937;28;20121;-54
2022/07/20 19:51:00;;;;;;;15.25;7.50;;;24.70;85.10;;;;;;5032819;28;20136;-55
2022/07/20 19:53:27;;;;;;;9.45;7.57;;;24.60;85.40;;;;;;5036730;28;20045;-53
2022/07/20 19:55:54;;;;;;;10.00;6.93;;;24.60;86.00;;;;;;5033096;28;20041;-52
2022/07/20 19:58:21;;;;;;;11.13;7.65;;;24.70;85.60;;;;;;5030142;28;20155;-52
2022/07/20 20:00:47;;;;;;;12.18;7.63;;;24.60;86.00;;;;;;5029859;28;20037;-50
2022/07/20 20:03:14;;;;;;;11.65;7.50;;;24.60;86.30;;;;;;5030166;28;20107;-53
2022/07/20 20:05:41;;;;;;;9.82;7.50;;;24.50;87.20;;;;;;5033589;28;20049;-56
2022/07/20 20:08:08;;;;;;;16.08;8.07;;;24.50;87.30;;;;;;5032693;28;20489;-50
2022/07/20 20:10:35;;;;;;;14.25;9.23;;;24.40;87.50;;;;;;5030453;28;20033;-51
2022/07/20 20:13:01;;;;;;;15.65;8.88;;;24.20;88.90;;;;;;5030910;28;20064;-49
2022/07/20 20:15:28;;;;;;;17.75;8.40;;;24.00;89.90;;;;;;5031477;28;20455;-54
2022/07/20 20:17:55;;;;;;;12.68;8.50;;;23.80;90.60;;;;;;5027212;28;20145;-50
2022/07/20 20:20:21;;;;;;;11.50;8.52;;;23.80;90.80;;;;;;5031169;28;20038;-57
2022/07/20 20:22:48;;;;;;;12.60;8.35;;;23.70;91.20;;;;;;5032146;28;20091;-54
2022/07/20 20:25:15;;;;;;;15.20;8.90;;;23.70;91.40;;;;;;5032816;28;20128;-56
2022/07/20 20:27:42;;;;;;;10.15;7.70;;;23.80;90.90;;;;;;5031527;28;20096;-54
2022/07/20 20:30:28;;;;;;;13.15;7.78;;;23.80;90.70;;;;;;5026875;28;20379;-56
2022/07/20 20:32:55;;;;;;;11.82;7.70;;;23.80;90.30;;;;;;5028376;28;20033;-49
2022/07/20 20:35:22;;;;;;;11.90;7.30;;;23.80;90.20;;;;;;5031748;28;20128;-52
2022/07/20 20:37:49;;;;;;;10.07;6.30;;;23.80;90.10;;;;;;5032001;28;20451;-50
2022/07/20 20:40:15;;;;;;;13.43;7.28;;;23.70;90.00;;;;;;5032968;28;20451;-55
2022/07/20 20:42:42;;;;;;;11.25;7.10;;;23.60;90.00;;;;;;5030536;28;20389;-54
2022/07/20 20:45:09;;;;;;;11.15;6.63;;;23.60;89.60;;;;;;5027097;28;20038;-50
2022/07/20 20:47:36;;;;;;;14.07;6.43;;;23.50;88.90;;;;;;5033133;28;20033;-53
2022/07/20 20:50:02;;;;;;;13.73;6.03;;;23.50;88.30;;;;;;5029932;28;20500;-52
2022/07/20 20:52:30;;;;;;;14.10;6.00;;;23.40;88.10;;;;;;5034470;28;20452;-53
2022/07/20 20:54:57;;;;;;;10.68;5.68;;;23.20;88.40;;;;;;5032415;28;20045;-55
2022/07/20 20:57:23;;;;;;;10.93;5.43;;;23.20;88.50;;;;;;5033307;28;20045;-53
2022/07/20 20:59:50;;;;;;;10.82;5.25;;;23.10;88.40;;;;;;5032715;28;20115;-55
2022/07/20 21:02:17;;;;;;;14.27;5.13;;;23.00;88.40;;;;;;5034357;28;20104;-49
2022/07/20 21:04:45;;;;;;;14.00;4.90;;;23.10;88.30;;;;;;5034043;28;20041;-55
2022/07/20 21:07:13;;;;;;;14.77;5.38;;;23.10;88.00;;;;;;5032377;28;20084;-52
2022/07/20 21:09:39;;;;;;;12.43;5.03;;;23.00;88.00;;;;;;5036779;28;20362;-51
2022/07/20 21:12:06;;;;;;;9.32;4.47;;;23.00;87.90;;;;;;5035403;28;20072;-50
2022/07/20 21:14:33;;;;;;;10.15;4.82;;;23.10;87.40;;;;;;5036057;28;20096;-54
2022/07/20 21:17:00;;;;;;;12.70;4.70;;;23.00;87.30;;;;;;5035937;28;20144;-49
2022/07/20 21:19:30;;;;;;;11.73;4.75;;;23.00;87.90;;;;;;5038392;28;20053;-52
2022/07/20 21:21:57;;;;;;;10.82;4.82;;;23.00;87.40;;;;;;5036247;28;20096;-55
2022/07/20 21:24:24;;;;;;;9.88;4.63;;;22.90;87.10;;;;;;5035536;28;20125;-51
2022/07/20 21:26:52;;;;;;;12.15;4.50;;;22.80;86.60;;;;;;5036294;28;20107;-51
2022/07/20 21:29:19;;;;;;;10.85;4.53;;;22.70;86.80;;;;;;5036235;28;20099;-52
2022/07/20 21:31:46;;;;;;;12.05;4.65;;;22.70;86.90;;;;;;5035899;28;20091;-54
2022/07/20 21:34:12;;;;;;;11.57;4.07;;;22.70;86.80;;;;;;5036161;28;20052;-53
2022/07/20 21:36:39;;;;;;;8.80;4.13;;;22.60;86.80;;;;;;5036162;28;20041;-53
2022/07/20 21:39:06;;;;;;;10.65;4.55;;;22.70;86.80;;;;;;5035335;28;20095;-50
2022/07/20 21:41:33;;;;;;;10.38;4.30;;;22.70;87.10;;;;;;5035954;28;20045;-50
2022/07/20 21:43:59;;;;;;;9.48;4.32;;;22.60;87.50;;;;;;5038586;28;20385;-51
2022/07/20 21:46:26;;;;;;;12.05;4.78;;;22.60;87.90;;;;;;5036106;28;20048;-50
2022/07/20 21:48:53;;;;;;;11.48;4.53;;;22.30;88.80;;;;;;5035765;28;20041;-53
2022/07/20 21:51:20;;;;;;;11.77;4.43;;;22.30;89.20;;;;;;5035289;28;20473;-53
2022/07/20 21:53:47;;;;;;;10.93;4.10;;;22.20;90.00;;;;;;5035854;28;20168;-53
2022/07/20 21:56:13;;;;;;;12.23;4.28;;;22.20;89.90;;;;;;5035850;28;20041;-51
2022/07/20 21:58:40;;;;;;;13.32;4.35;;;22.20;89.70;;;;;;5036088;28;20084;-54
2022/07/20 22:01:10;;;;;;;9.93;4.55;;;22.10;90.00;;;;;;5035721;28;20052;-52
2022/07/20 22:03:37;;;;;;;8.48;4.03;;;22.20;90.00;;;;;;5035702;28;20037;-54
2022/07/20 22:06:04;;;;;;;7.82;4.00;;;22.10;89.90;;;;;;5035628;28;20041;-50
2022/07/20 22:08:31;;;;;;;8.38;4.40;;;22.00;89.90;;;;;;5035523;28;20050;-53
2022/07/20 22:10:57;;;;;;;9.07;4.10;;;21.90;90.00;;;;;;5035465;28;20060;-52
2022/07/20 22:13:24;;;;;;;7.82;4.28;;;21.60;90.40;;;;;;5035340;28;20496;-54
2022/07/20 22:15:51;;;;;;;8.40;4.30;;;21.60;90.50;;;;;;5035382;28;20467;-50
2022/07/20 22:18:18;;;;;;;7.63;4.03;;;21.60;90.70;;;;;;5035341;28;20049;-53
2022/07/20 22:20:47;;;;;;;6.35;4.30;;;21.50;90.80;;;;;;5035566;28;20052;-55
